Time;durP1;ratioP1;P1;durP2;ratioP2;P2;SDS_P1;SDS_P2;PMS_P1;PMS_P2;Temp;Humidity;BMP_temperature;BMP_pressure;BME280_temperature;BME280_humidity;BME280_pressure;Samples;Min_cycle;Max_cycle;Signal;HPM_P1;HPM_P2
2022/03/10 00:01:26;;;;;;;7.18;5.65;;;8.00;99.90;;;;;;5073874;28;20832;-51
2022/03/10 00:03:52;;;;;;;7.20;5.63;;;8.00;99.90;;;;;;5071832;28;20394;-54
2022/03/10 00:06:17;;;;;;;8.40;6.03;;;8.00;99.90;;;;;;5072330;28;20450;-56
2022/03/10 00:08:43;;;;;;;6.63;5.73;;;7.90;99.90;;;;;;5072694;28;20393;-51
2022/03/10 00:11:09;;;;;;;8.80;5.90;;;7.90;99.90;;;;;;5070416;28;20428;-54
2022/03/10 00:13:34;;;;;;;7.43;6.20;;;7.80;99.90;;;;;;5073000;28;20381;-51
2022/03/10 00:16:00;;;;;;;8.13;6.30;;;7.80;99.90;;;;;;5091633;28;20401;-54
2022/03/10 00:18:26;;;;;;;8.18;5.88;;;7.80;99.90;;;;;;5074145;28;20397;-55
2022/03/10 00:20:52;;;;;;;8.53;6.30;;;7.80;99.90;;;;;;5074043;28;20421;-53
2022/03/10 00:23:18;;;;;;;8.93;6.20;;;7.80;99.90;;;;;;5074307;28;20404;-53
2022/03/10 00:25:44;;;;;;;7.40;6.38;;;7.80;99.90;;;;;;5092249;28;20375;-55
2022/03/10 00:28:10;;;;;;;9.67;6.40;;;7.70;99.90;;;;;;5075065;28;20424;-51
2022/03/10 00:30:35;;;;;;;8.63;6.30;;;7.70;99.90;;;;;;5075164;28;20381;-53
2022/03/10 00:33:01;;;;;;;7.25;6.13;;;7.70;99.90;;;;;;5072206;28;20470;-53
2022/03/10 00:35:27;;;;;;;7.93;6.20;;;7.70;99.90;;;;;;5072447;28;20393;-52
2022/03/10 00:37:53;;;;;;;9.15;6.03;;;7.60;99.90;;;;;;5070802;28;20719;-54
2022/03/10 00:40:19;;;;;;;8.68;6.45;;;7.60;99.90;;;;;;5070983;28;20446;-54
2022/03/10 00:42:45;;;;;;;8.23;6.25;;;7.50;99.90;;;;;;5074032;28;20473;-54
2022/03/10 00:45:13;;;;;;;7.40;6.53;;;7.40;99.90;;;;;;5072060;28;20852;-56
2022/03/10 00:47:38;;;;;;;9.23;6.82;;;7.40;99.90;;;;;;5072052;28;20625;-52
2022/03/10 00:50:06;;;;;;;8.85;6.20;;;7.40;99.90;;;;;;5070993;28;20390;-54
2022/03/10 00:52:32;;;;;;;8.48;6.32;;;7.40;99.90;;;;;;5069503;28;20440;-55
2022/03/10 00:54:58;;;;;;;7.72;5.97;;;7.40;99.90;;;;;;5071033;28;20424;-53
2022/03/10 00:57:23;;;;;;;8.23;6.53;;;7.30;99.90;;;;;;5070552;28;20731;-50
2022/03/10 00:59:49;;;;;;;8.87;6.50;;;7.30;99.90;;;;;;5073003;28;20386;-52
2022/03/10 01:02:14;;;;;;;8.88;6.60;;;7.20;99.90;;;;;;5074104;28;20485;-56
2022/03/10 01:04:41;;;;;;;8.30;6.60;;;7.20;99.90;;;;;;5074379;28;20430;-51
2022/03/10 01:07:07;;;;;;;7.65;6.10;;;7.20;99.90;;;;;;5091472;28;20397;-54
2022/03/10 01:09:33;;;;;;;8.13;6.97;;;7.20;99.90;;;;;;5093063;28;20401;-54
2022/03/10 01:11:58;;;;;;;7.93;6.60;;;7.10;99.90;;;;;;5076597;28;20654;-52
2022/03/10 01:14:24;;;;;;;9.57;6.50;;;7.10;99.90;;;;;;5074752;28;20548;-54
2022/03/10 01:16:49;;;;;;;7.90;6.75;;;7.10;99.90;;;;;;5073263;28;20697;-57
2022/03/10 01:19:15;;;;;;;9.57;6.47;;;7.10;99.90;;;;;;5074736;28;20824;-53
2022/03/10 01:21:41;;;;;;;9.38;6.93;;;7.10;99.90;;;;;;5073025;28;20534;-52
2022/03/10 01:24:07;;;;;;;7.60;6.35;;;7.00;99.90;;;;;;5072295;28;20378;-52
2022/03/10 01:26:33;;;;;;;7.47;6.57;;;7.00;99.90;;;;;;5069603;28;20948;-55
2022/03/10 01:28:58;;;;;;;9.17;6.43;;;6.90;99.90;;;;;;5069046;28;20389;-51
2022/03/10 01:31:24;;;;;;;8.27;6.90;;;6.90;99.90;;;;;;5069205;28;20393;-53
2022/03/10 01:33:49;;;;;;;12.10;6.60;;;6.90;99.90;;;;;;5087863;28;20401;-52
2022/03/10 01:36:15;;;;;;;8.95;6.60;;;6.90;99.90;;;;;;5089941;28;20796;-51
2022/03/10 01:38:42;;;;;;;7.17;6.43;;;6.90;99.90;;;;;;5091684;28;20782;-56
2022/03/10 01:41:08;;;;;;;9.80;6.70;;;6.90;99.90;;;;;;5072886;28;20462;-54
2022/03/10 01:43:54;;;;;;;9.30;7.10;;;6.90;99.90;;;;;;5074114;28;20389;-53
2022/03/10 01:46:20;;;;;;;9.45;6.40;;;6.80;99.90;;;;;;5089510;28;20405;-50
2022/03/10 01:48:46;;;;;;;9.07;6.57;;;6.80;99.90;;;;;;5092972;28;20382;-53
2022/03/10 01:51:12;;;;;;;9.45;7.00;;;6.80;99.90;;;;;;5076226;28;20405;-53
2022/03/10 01:53:37;;;;;;;8.65;6.93;;;6.90;99.90;;;;;;5077467;28;20409;-57
2022/03/10 01:56:03;;;;;;;8.65;6.30;;;6.90;99.90;;;;;;5078988;28;20393;-54
2022/03/10 01:58:29;;;;;;;9.68;6.57;;;6.90;99.90;;;;;;5079318;28;20374;-53
2022/03/10 02:00:55;;;;;;;8.20;7.07;;;6.80;99.90;;;;;;5077967;28;20451;-53
2022/03/10 02:03:20;;;;;;;8.05;6.88;;;6.80;99.90;;;;;;5091323;28;20394;-56
2022/03/10 02:05:47;;;;;;;8.50;7.10;;;6.80;99.90;;;;;;5074330;28;20603;-53
2022/03/10 02:10:57;;;;;;;9.98;6.63;;;6.80;99.90;;;;;;5090512;28;20735;-55
2022/03/10 02:13:23;;;;;;;7.75;6.82;;;6.80;99.90;;;;;;5074865;28;20542;-56
2022/03/10 02:18:33;;;;;;;8.75;6.95;;;6.80;99.90;;;;;;5093812;28;20393;-54
2022/03/10 02:20:59;;;;;;;8.77;6.50;;;6.60;99.90;;;;;;5077278;28;20405;-50
2022/03/10 02:23:25;;;;;;;10.88;7.22;;;6.60;99.90;;;;;;5078513;28;20382;-56
2022/03/10 02:25:50;;;;;;;10.25;7.35;;;6.60;99.90;;;;;;5078136;28;20378;-49
2022/03/10 02:28:17;;;;;;;8.10;6.93;;;6.60;99.90;;;;;;5076607;28;20634;-52
2022/03/10 02:30:43;;;;;;;7.35;6.60;;;6.60;99.90;;;;;;5094562;28;20384;-51
2022/03/10 02:33:08;;;;;;;8.90;7.40;;;6.60;99.90;;;;;;5075694;28;20402;-52
2022/03/10 02:35:34;;;;;;;8.03;6.60;;;6.60;99.90;;;;;;5074984;28;20498;-56
2022/03/10 02:38:00;;;;;;;10.77;6.93;;;6.60;99.90;;;;;;5077566;28;20424;-53
2022/03/10 02:40:26;;;;;;;9.95;7.20;;;6.60;99.90;;;;;;5078555;28;20378;-55
2022/03/10 02:42:52;;;;;;;10.63;6.97;;;6.50;99.90;;;;;;5078146;28;20722;-53
2022/03/10 02:45:17;;;;;;;8.03;6.70;;;6.50;99.90;;;;;;5078168;28;20463;-52
2022/03/10 02:47:43;;;;;;;8.33;6.70;;;6.50;99.90;;;;;;5077389;28;20378;-53
2022/03/10 02:50:09;;;;;;;8.35;6.82;;;6.60;99.90;;;;;;5078166;28;20390;-57
2022/03/10 02:52:39;;;;;;;7.93;6.85;;;6.50;99.90;;;;;;5077112;28;20834;-56
2022/03/10 02:55:05;;;;;;;8.57;7.00;;;6.50;99.90;;;;;;5076634;28;20385;-53
2022/03/10 02:57:31;;;;;;;9.10;7.27;;;6.40;99.90;;;;;;5077148;28;20467;-57
2022/03/10 03:00:00;;;;;;;9.18;7.22;;;6.40;99.90;;;;;;5095483;28;20378;-56
2022/03/10 03:02:27;;;;;;;9.27;6.80;;;6.40;99.90;;;;;;5077333;28;20470;-53
2022/03/10 03:04:52;;;;;;;9.43;7.28;;;6.40;99.90;;;;;;5077926;28;20479;-53
2022/03/10 03:07:18;;;;;;;10.57;7.00;;;6.40;99.90;;;;;;5096494;28;20487;-55
2022/03/10 03:09:44;;;;;;;7.80;6.97;;;6.30;99.90;;;;;;5078116;28;20840;-55
2022/03/10 03:12:09;;;;;;;8.68;7.00;;;6.30;99.90;;;;;;5076489;28;20732;-56
2022/03/10 03:14:35;;;;;;;8.13;6.70;;;6.20;99.90;;;;;;5076264;28;20447;-57
2022/03/10 03:17:00;;;;;;;7.93;6.73;;;6.20;99.90;;;;;;5095180;28;20427;-57
2022/03/10 03:19:26;;;;;;;12.45;7.85;;;6.20;99.90;;;;;;5075351;28;20624;-52
2022/03/10 03:21:52;;;;;;;8.82;7.07;;;6.10;99.90;;;;;;5093452;28;20405;-53
2022/03/10 03:24:18;;;;;;;8.70;7.10;;;6.10;99.90;;;;;;5092150;28;20386;-55
2022/03/10 03:26:44;;;;;;;8.85;7.43;;;6.10;99.90;;;;;;5091862;28;20374;-58
2022/03/10 03:29:10;;;;;;;8.73;7.40;;;6.00;99.90;;;;;;5075441;28;20422;-54
2022/03/10 03:31:36;;;;;;;7.77;6.87;;;5.90;99.90;;;;;;5094209;28;20370;-56
2022/03/10 03:34:05;;;;;;;10.32;7.50;;;5.90;99.90;;;;;;5075551;28;20595;-55
2022/03/10 03:36:30;;;;;;;9.80;7.37;;;5.80;99.90;;;;;;5074518;28;20463;-54
2022/03/10 03:38:57;;;;;;;9.30;7.50;;;5.80;99.90;;;;;;5072877;28;20398;-56
2022/03/10 03:41:23;;;;;;;8.93;7.33;;;5.70;99.90;;;;;;5072746;28;20550;-53
2022/03/10 03:43:48;;;;;;;9.17;7.30;;;5.60;99.90;;;;;;5073325;28;20481;-56
2022/03/10 03:46:14;;;;;;;8.25;6.75;;;5.60;99.90;;;;;;5091211;28;20397;-54
2022/03/10 03:48:40;;;;;;;12.30;7.87;;;5.70;99.90;;;;;;5072336;28;20493;-53
2022/03/10 03:51:06;;;;;;;9.33;7.63;;;5.70;99.90;;;;;;5089498;28;20396;-53
2022/03/10 03:53:31;;;;;;;8.70;7.72;;;5.60;99.90;;;;;;5071565;28;20418;-54
2022/03/10 03:55:57;;;;;;;8.90;7.37;;;5.50;99.90;;;;;;5073603;28;20382;-52
2022/03/10 03:58:22;;;;;;;11.00;7.83;;;5.50;99.90;;;;;;5073095;28;20647;-52
2022/03/10 04:00:48;;;;;;;10.02;7.63;;;5.60;99.90;;;;;;5072361;28;20406;-54
2022/03/10 04:03:14;;;;;;;9.75;7.55;;;5.50;99.90;;;;;;5075394;28;20409;-55
2022/03/10 04:05:40;;;;;;;9.03;7.70;;;5.50;99.90;;;;;;5092329;28;20752;-55
2022/03/10 04:08:07;;;;;;;8.45;7.57;;;5.50;99.90;;;;;;5074351;28;20366;-52
2022/03/10 04:10:32;;;;;;;9.20;7.35;;;5.60;99.90;;;;;;5091401;28;20457;-55
2022/03/10 04:12:58;;;;;;;8.93;7.73;;;5.50;99.90;;;;;;5074792;28;20555;-55
2022/03/10 04:15:24;;;;;;;9.60;7.33;;;5.60;99.90;;;;;;5074460;28;20483;-55
2022/03/10 04:17:49;;;;;;;10.50;7.73;;;5.50;99.90;;;;;;5075888;28;20378;-55
2022/03/10 04:20:15;;;;;;;10.32;8.15;;;5.40;99.90;;;;;;5074917;28;20378;-54
2022/03/10 04:22:40;;;;;;;9.17;7.90;;;5.40;99.90;;;;;;5073930;28;20482;-54
2022/03/10 04:25:08;;;;;;;10.13;7.80;;;5.30;99.90;;;;;;5091120;28;20378;-54
2022/03/10 04:27:34;;;;;;;10.15;7.95;;;5.30;99.90;;;;;;5089871;28;20377;-54
2022/03/10 04:30:00;;;;;;;8.48;7.38;;;5.30;99.90;;;;;;5073827;28;20392;-55
2022/03/10 04:32:26;;;;;;;10.52;8.07;;;5.30;99.90;;;;;;5073366;28;20385;-55
2022/03/10 04:34:51;;;;;;;10.00;8.00;;;5.30;99.90;;;;;;5073625;28;20402;-53
2022/03/10 04:37:17;;;;;;;10.20;8.13;;;5.30;99.90;;;;;;5073942;28;20455;-57
2022/03/10 04:39:42;;;;;;;10.50;8.50;;;5.20;99.90;;;;;;5090508;28;20390;-54
2022/03/10 04:42:07;;;;;;;11.53;7.93;;;5.20;99.90;;;;;;5073819;28;20506;-52
2022/03/10 04:44:33;;;;;;;9.85;8.32;;;5.10;99.90;;;;;;5073075;28;20416;-53
2022/03/10 04:46:58;;;;;;;10.40;7.73;;;5.10;99.90;;;;;;5074418;28;20393;-55
2022/03/10 04:49:24;;;;;;;10.90;8.37;;;5.00;99.90;;;;;;5074319;28;20396;-54
2022/03/10 04:51:49;;;;;;;9.65;8.00;;;5.00;99.90;;;;;;5072625;28;20384;-56
2022/03/10 04:54:15;;;;;;;9.30;7.93;;;5.00;99.90;;;;;;5071140;28;20494;-57
2022/03/10 04:56:41;;;;;;;11.47;9.00;;;5.10;99.90;;;;;;5074443;28;20424;-57
2022/03/10 04:59:06;;;;;;;10.97;9.03;;;5.10;99.90;;;;;;5073279;28;20385;-55
2022/03/10 05:01:32;;;;;;;10.98;8.88;;;5.10;99.90;;;;;;5071034;28;20409;-55
2022/03/10 05:03:57;;;;;;;9.70;8.10;;;5.00;99.90;;;;;;5089751;28;20451;-55
2022/03/10 05:06:23;;;;;;;10.30;8.73;;;5.10;99.90;;;;;;5072939;28;20459;-52
2022/03/10 05:08:48;;;;;;;9.85;8.27;;;5.00;99.90;;;;;;5076046;28;20393;-56
2022/03/10 05:11:14;;;;;;;11.25;9.25;;;5.00;99.90;;;;;;5074563;28;20397;-57
2022/03/10 05:13:39;;;;;;;9.80;8.23;;;5.00;99.90;;;;;;5072592;28;20661;-53
2022/03/10 05:16:05;;;;;;;12.37;9.17;;;5.00;99.90;;;;;;5088018;28;20382;-57
2022/03/10 05:18:30;;;;;;;9.07;7.93;;;5.00;99.90;;;;;;5066012;28;20560;-58
2022/03/10 05:20:56;;;;;;;12.47;8.90;;;5.00;99.90;;;;;;5066399;28;20398;-55
2022/03/10 05:23:22;;;;;;;12.70;9.60;;;5.00;99.90;;;;;;5084075;28;20409;-54
2022/03/10 05:25:48;;;;;;;12.23;8.97;;;4.90;99.90;;;;;;5088049;28;20600;-53
2022/03/10 05:28:14;;;;;;;11.57;9.77;;;4.90;99.90;;;;;;5069064;28;20382;-59
2022/03/10 05:30:45;;;;;;;12.27;9.20;;;5.00;99.90;;;;;;5070118;28;20443;-57
2022/03/10 05:33:11;;;;;;;10.88;9.63;;;4.90;99.90;;;;;;5088444;28;20691;-56
2022/03/10 05:35:37;;;;;;;10.98;9.00;;;4.90;99.90;;;;;;5072878;28;20469;-54
2022/03/10 05:38:03;;;;;;;10.93;9.03;;;4.90;99.90;;;;;;5092095;28;20477;-52
2022/03/10 05:40:29;;;;;;;10.93;9.37;;;4.90;99.90;;;;;;5091362;28;20410;-57
2022/03/10 05:42:55;;;;;;;12.67;9.67;;;4.90;99.90;;;;;;5072029;28;20389;-55
2022/03/10 05:45:22;;;;;;;12.10;9.70;;;4.80;99.90;;;;;;5071457;28;20542;-54
2022/03/10 05:47:54;;;;;;;11.30;9.57;;;4.80;99.90;;;;;;5091508;28;20378;-57
2022/03/10 05:50:20;;;;;;;12.88;9.82;;;4.80;99.90;;;;;;5086685;28;20393;-55
2022/03/10 05:52:46;;;;;;;10.70;9.60;;;4.80;99.90;;;;;;5061575;28;20418;-56
2022/03/10 05:55:13;;;;;;;11.33;10.10;;;4.80;99.90;;;;;;5050504;28;20379;-58
2022/03/10 05:57:39;;;;;;;11.90;9.85;;;4.80;99.90;;;;;;5051529;28;20384;-58
2022/03/10 06:00:06;;;;;;;12.77;9.82;;;4.80;99.90;;;;;;5050663;28;20391;-55
2022/03/10 06:02:31;;;;;;;12.75;9.82;;;4.80;99.90;;;;;;5068148;28;20391;-56
2022/03/10 06:05:00;;;;;;;14.03;10.17;;;4.80;99.90;;;;;;5050573;28;20399;-54
2022/03/10 06:07:27;;;;;;;13.85;10.35;;;4.70;99.90;;;;;;5066990;28;20426;-53
2022/03/10 06:09:54;;;;;;;11.70;10.13;;;4.70;99.90;;;;;;5064734;28;20434;-56
2022/03/10 06:12:21;;;;;;;14.48;10.43;;;4.60;99.90;;;;;;5046870;28;20442;-56
2022/03/10 06:14:46;;;;;;;12.30;10.00;;;4.60;99.90;;;;;;5045060;28;20675;-55
2022/03/10 06:17:12;;;;;;;12.70;10.43;;;4.60;99.90;;;;;;5046161;28;20452;-56
2022/03/10 06:19:38;;;;;;;11.77;9.60;;;4.70;99.90;;;;;;5065129;28;20438;-53
2022/03/10 06:22:03;;;;;;;13.13;10.53;;;4.70;99.90;;;;;;5047430;28;20418;-57
2022/03/10 06:24:29;;;;;;;14.93;10.60;;;4.70;99.90;;;;;;5047425;28;20390;-56
2022/03/10 06:26:54;;;;;;;12.90;10.50;;;4.70;99.90;;;;;;5065738;28;20474;-58
2022/03/10 06:29:20;;;;;;;14.80;10.70;;;4.60;99.90;;;;;;5048670;28;20468;-53
2022/03/10 06:31:47;;;;;;;11.20;9.88;;;4.60;99.90;;;;;;5049911;28;20537;-54
2022/03/10 06:34:13;;;;;;;13.32;10.35;;;4.60;99.90;;;;;;5048254;28;20804;-55
2022/03/10 06:36:38;;;;;;;11.38;9.45;;;4.70;99.90;;;;;;5048287;28;20448;-57
2022/03/10 06:39:06;;;;;;;12.60;10.18;;;4.70;99.90;;;;;;5047827;28;20383;-54
2022/03/10 06:41:31;;;;;;;12.50;10.32;;;4.70;99.90;;;;;;5046239;28;20618;-56
2022/03/10 06:43:57;;;;;;;13.80;10.00;;;4.80;99.90;;;;;;5047088;28;20633;-54
2022/03/10 06:46:22;;;;;;;13.25;10.40;;;4.80;99.90;;;;;;5046530;28;20379;-54
2022/03/10 06:48:48;;;;;;;13.37;10.80;;;4.80;99.90;;;;;;5045611;28;20403;-55
2022/03/10 06:51:14;;;;;;;12.57;10.10;;;4.80;99.90;;;;;;5046697;28;20388;-55
2022/03/10 06:53:39;;;;;;;12.30;10.27;;;4.80;99.90;;;;;;5061024;28;20412;-56
2022/03/10 06:56:05;;;;;;;13.35;9.98;;;4.80;99.90;;;;;;5065934;28;20501;-56
2022/03/10 06:58:31;;;;;;;11.57;9.88;;;4.90;99.90;;;;;;5067194;28;20694;-56
2022/03/10 07:00:56;;;;;;;12.88;9.80;;;4.90;99.90;;;;;;5066222;28;20433;-55
2022/03/10 07:03:22;;;;;;;13.02;10.30;;;4.90;99.90;;;;;;5087012;28;20404;-56
2022/03/10 07:05:47;;;;;;;12.43;10.33;;;4.90;99.90;;;;;;5084401;28;20389;-55
2022/03/10 07:08:13;;;;;;;12.77;9.97;;;5.00;99.90;;;;;;5067938;28;20993;-56
2022/03/10 07:10:39;;;;;;;12.48;9.85;;;5.00;99.90;;;;;;5068437;28;20409;-56
2022/03/10 07:13:04;;;;;;;12.00;9.93;;;5.00;99.90;;;;;;5069816;28;20635;-51
2022/03/10 07:15:30;;;;;;;13.63;10.43;;;5.00;99.90;;;;;;5087754;28;20398;-56
2022/03/10 07:17:56;;;;;;;13.30;9.97;;;5.00;99.90;;;;;;5085904;28;20393;-52
2022/03/10 07:20:21;;;;;;;13.05;10.32;;;5.00;99.90;;;;;;5066087;28;20474;-56
2022/03/10 07:22:47;;;;;;;12.50;9.88;;;5.10;99.90;;;;;;5083204;28;20506;-54
2022/03/10 07:25:12;;;;;;;11.93;9.60;;;5.10;99.90;;;;;;5064538;28;21058;-55
2022/03/10 07:27:38;;;;;;;12.93;9.83;;;5.10;99.90;;;;;;5081577;28;20389;-53
2022/03/10 07:30:05;;;;;;;13.25;9.50;;;5.20;99.90;;;;;;5063638;28;20793;-57
2022/03/10 07:32:30;;;;;;;11.77;9.85;;;5.20;99.90;;;;;;5065173;28;20390;-57
2022/03/10 07:34:56;;;;;;;13.25;10.15;;;5.20;99.90;;;;;;5066201;28;20569;-57
2022/03/10 07:37:22;;;;;;;13.50;10.37;;;5.30;99.90;;;;;;5068447;28;20682;-53
2022/03/10 07:39:47;;;;;;;13.43;10.23;;;5.30;99.90;;;;;;5064700;28;20393;-51
2022/03/10 07:42:15;;;;;;;10.43;9.13;;;5.30;99.90;;;;;;5065623;28;20432;-54
2022/03/10 07:44:40;;;;;;;12.63;9.63;;;5.40;99.90;;;;;;5082307;28;20378;-56
2022/03/10 07:47:06;;;;;;;13.15;9.57;;;5.40;99.90;;;;;;5063835;28;20610;-56
2022/03/10 07:49:32;;;;;;;12.90;10.50;;;5.40;99.90;;;;;;5062104;28;20389;-58
2022/03/10 07:51:59;;;;;;;10.70;9.50;;;5.40;99.90;;;;;;5062236;28;20382;-54
2022/03/10 07:54:25;;;;;;;10.23;8.85;;;5.40;99.90;;;;;;5064389;28;20489;-56
2022/03/10 07:56:51;;;;;;;14.27;10.40;;;5.50;99.90;;;;;;5084497;28;20502;-54
2022/03/10 07:59:16;;;;;;;12.65;10.00;;;5.50;99.90;;;;;;5081081;28;20817;-57
2022/03/10 08:01:42;;;;;;;11.77;10.00;;;5.50;99.90;;;;;;5082842;28;20507;-55
2022/03/10 08:04:08;;;;;;;15.13;10.23;;;5.60;99.90;;;;;;5064671;28;20393;-56
2022/03/10 08:06:34;;;;;;;11.82;9.93;;;5.60;99.90;;;;;;5064993;28;20805;-57
2022/03/10 08:08:59;;;;;;;11.10;9.50;;;5.60;99.90;;;;;;5081016;28;20771;-58
2022/03/10 08:11:28;;;;;;;11.57;9.80;;;5.60;99.90;;;;;;5062316;28;20388;-58
2022/03/10 08:13:54;;;;;;;13.57;10.98;;;5.70;99.90;;;;;;5058087;28;20424;-53
2022/03/10 08:16:20;;;;;;;12.45;10.15;;;5.70;99.90;;;;;;5058486;28;20455;-56
2022/03/10 08:18:47;;;;;;;13.33;10.20;;;5.80;99.90;;;;;;5061217;28;20398;-58
2022/03/10 08:21:12;;;;;;;13.70;10.35;;;5.80;99.90;;;;;;5063612;28;20414;-58
2022/03/10 08:23:38;;;;;;;12.40;9.80;;;5.90;99.90;;;;;;5082136;28;20447;-53
2022/03/10 08:26:03;;;;;;;11.65;9.57;;;5.90;99.90;;;;;;5063333;28;20385;-57
2022/03/10 08:28:29;;;;;;;11.07;9.23;;;6.00;99.90;;;;;;5061719;28;20480;-56
2022/03/10 08:30:54;;;;;;;12.15;9.73;;;6.00;99.90;;;;;;5058828;28;20382;-58
2022/03/10 08:33:20;;;;;;;14.43;10.50;;;6.00;99.90;;;;;;5061013;28;20398;-57
2022/03/10 08:35:45;;;;;;;11.97;9.90;;;6.10;99.90;;;;;;5061275;28;20804;-53
2022/03/10 08:38:11;;;;;;;13.60;10.53;;;6.10;99.90;;;;;;5058594;28;20393;-53
2022/03/10 08:40:37;;;;;;;11.98;10.07;;;6.20;99.90;;;;;;5053654;28;20382;-56
2022/03/10 08:43:03;;;;;;;11.30;9.48;;;6.20;99.90;;;;;;5055972;28;20620;-57
2022/03/10 08:45:30;;;;;;;12.95;10.30;;;6.20;99.90;;;;;;5059125;28;20661;-55
2022/03/10 08:47:56;;;;;;;10.93;9.40;;;6.30;99.90;;;;;;5062915;28;20650;-58
2022/03/10 08:50:22;;;;;;;11.57;9.43;;;6.40;99.90;;;;;;5065082;28;20635;-56
2022/03/10 08:52:48;;;;;;;10.10;8.70;;;6.40;99.90;;;;;;5065595;28;20398;-56
2022/03/10 08:55:14;;;;;;;11.40;9.02;;;6.50;99.90;;;;;;5064389;28;20385;-56
2022/03/10 08:57:40;;;;;;;11.75;9.43;;;6.60;99.90;;;;;;5064869;28;20378;-57
2022/03/10 09:00:07;;;;;;;10.10;8.95;;;6.70;99.90;;;;;;5064431;28;20805;-54
2022/03/10 09:02:33;;;;;;;14.43;9.37;;;6.70;99.90;;;;;;5062037;28;20405;-56
2022/03/10 09:04:59;;;;;;;11.40;9.23;;;6.80;99.90;;;;;;5063648;28;20496;-56
2022/03/10 09:07:24;;;;;;;12.83;9.80;;;6.90;99.90;;;;;;5064124;28;20759;-53
2022/03/10 09:09:50;;;;;;;11.75;8.52;;;6.90;99.90;;;;;;5081504;28;20410;-58
2022/03/10 09:12:15;;;;;;;11.23;9.43;;;7.00;99.90;;;;;;5064208;28;20385;-54
2022/03/10 09:14:41;;;;;;;13.57;9.33;;;7.00;99.90;;;;;;5064783;28;20900;-57
2022/03/10 09:17:06;;;;;;;12.67;9.53;;;7.10;99.90;;;;;;5064895;28;20378;-55
2022/03/10 09:19:32;;;;;;;10.82;8.27;;;7.10;99.90;;;;;;5067929;28;20749;-58
2022/03/10 09:21:59;;;;;;;11.97;8.53;;;7.20;99.90;;;;;;5069460;28;20406;-58
2022/03/10 09:24:25;;;;;;;12.27;9.25;;;7.20;99.90;;;;;;5067896;28;20451;-54
2022/03/10 09:26:51;;;;;;;12.18;8.80;;;7.30;99.90;;;;;;5061607;28;20409;-56
2022/03/10 09:29:16;;;;;;;25.58;9.05;;;7.40;99.90;;;;;;5062229;28;20405;-56
2022/03/10 09:31:42;;;;;;;11.63;8.40;;;7.40;99.90;;;;;;5059395;28;20382;-54
2022/03/10 09:34:08;;;;;;;11.52;8.82;;;7.40;99.90;;;;;;5059285;28;20425;-53
2022/03/10 09:36:34;;;;;;;9.27;7.90;;;7.40;99.90;;;;;;5080442;28;20656;-55
2022/03/10 09:38:59;;;;;;;12.80;8.93;;;7.50;99.90;;;;;;5062807;28;20801;-54
2022/03/10 09:41:25;;;;;;;11.80;8.70;;;7.50;99.90;;;;;;5080777;28;20413;-56
2022/03/10 09:43:51;;;;;;;12.35;8.35;;;7.60;99.90;;;;;;5060879;28;20737;-56
2022/03/10 09:46:17;;;;;;;12.55;7.97;;;7.70;99.90;;;;;;5080273;28;20830;-56
2022/03/10 09:48:42;;;;;;;9.95;8.20;;;7.70;99.90;;;;;;5060864;28;20393;-58
2022/03/10 09:51:09;;;;;;;10.55;8.40;;;7.80;99.90;;;;;;5061783;28;20386;-52
2022/03/10 09:53:35;;;;;;;11.82;8.73;;;7.80;99.90;;;;;;5061954;28;20825;-53
2022/03/10 09:56:03;;;;;;;9.85;8.02;;;7.90;99.90;;;;;;5060997;28;20790;-56
2022/03/10 09:58:31;;;;;;;12.20;8.68;;;8.00;99.90;;;;;;5079225;28;20868;-55
2022/03/10 10:01:02;;;;;;;11.50;8.50;;;8.10;99.90;;;;;;5058131;28;20501;-54
2022/03/10 10:03:28;;;;;;;11.43;8.18;;;8.10;99.90;;;;;;5057763;28;20704;-54
2022/03/10 10:05:58;;;;;;;9.85;8.23;;;8.10;99.90;;;;;;5056822;28;20517;-53
2022/03/10 10:08:26;;;;;;;9.95;8.15;;;8.20;99.90;;;;;;5057387;28;20378;-54
2022/03/10 10:10:53;;;;;;;12.13;8.45;;;8.20;99.90;;;;;;5068624;28;20393;-56
2022/03/10 10:13:43;;;;;;;13.52;8.52;;;8.30;99.90;;;;;;5089943;28;20774;-56
2022/03/10 10:16:21;;;;;;;13.95;9.00;;;8.40;99.90;;;;;;5089293;28;20393;-54
2022/03/10 10:18:46;;;;;;;12.80;8.85;;;8.40;99.90;;;;;;5073299;28;20394;-58
2022/03/10 10:21:19;;;;;;;11.32;8.18;;;8.50;99.90;;;;;;5071901;28;20420;-58
2022/03/10 10:23:46;;;;;;;11.02;8.77;;;8.50;99.90;;;;;;5090654;28;20393;-58
2022/03/10 10:26:13;;;;;;;10.40;7.95;;;8.60;99.90;;;;;;5071221;28;20390;-54
2022/03/10 10:28:42;;;;;;;11.33;8.67;;;8.60;99.90;;;;;;5088335;28;20397;-56
2022/03/10 10:31:12;;;;;;;11.88;8.82;;;8.70;99.90;;;;;;5052042;28;20407;-54
2022/03/10 10:33:55;;;;;;;11.68;8.50;;;8.70;99.90;;;;;;5082184;28;21195;-51
2022/03/10 10:36:28;;;;;;;12.23;8.95;;;8.80;99.90;;;;;;5054814;28;20996;-55
2022/03/10 10:39:14;;;;;;;12.38;9.05;;;9.10;99.90;;;;;;5071765;28;20385;-58
2022/03/10 10:41:42;;;;;;;10.68;7.38;;;9.30;99.90;;;;;;5090916;28;21080;-57
2022/03/10 10:44:12;;;;;;;11.47;7.87;;;9.80;99.90;;;;;;5073172;28;20402;-59
2022/03/10 10:46:43;;;;;;;9.57;7.88;;;10.20;99.90;;;;;;5092561;28;20382;-57
2022/03/10 10:49:18;;;;;;;11.77;8.20;;;10.40;99.90;;;;;;5072750;28;20406;-55
2022/03/10 10:51:52;;;;;;;10.23;8.05;;;10.80;99.90;;;;;;5054017;28;20405;-55
2022/03/10 10:54:21;;;;;;;13.85;8.38;;;11.00;99.90;;;;;;5061301;28;21130;-55
2022/03/10 10:57:03;;;;;;;11.10;7.85;;;11.10;99.90;;;;;;5053801;28;21130;-55
2022/03/10 10:59:41;;;;;;;12.40;7.88;;;11.00;99.90;;;;;;5037454;28;20494;-57
2022/03/10 11:02:20;;;;;;;10.65;8.40;;;10.90;99.90;;;;;;5051853;28;20512;-58
2022/03/10 11:04:52;;;;;;;10.15;8.23;;;10.70;99.90;;;;;;5069109;28;20379;-56
2022/03/10 11:07:21;;;;;;;11.50;8.90;;;10.60;99.90;;;;;;5052093;28;20382;-57
2022/03/10 11:09:52;;;;;;;11.18;8.60;;;10.70;99.90;;;;;;5037088;28;20384;-57
2022/03/10 11:12:19;;;;;;;10.55;8.45;;;10.80;99.90;;;;;;5053925;28;20392;-58
2022/03/10 11:14:47;;;;;;;9.02;7.90;;;10.80;99.90;;;;;;5037907;28;20406;-56
2022/03/10 11:17:15;;;;;;;10.05;8.35;;;11.00;99.90;;;;;;5053396;28;20865;-56
2022/03/10 11:19:47;;;;;;;10.30;8.00;;;11.30;99.90;;;;;;5050044;28;20399;-56
2022/03/10 11:22:47;;;;;;;9.93;8.57;;;11.70;99.90;;;;;;5051930;28;20494;-57
2022/03/10 11:25:33;;;;;;;10.70;8.38;;;11.90;99.90;;;;;;5053205;28;20464;-58
2022/03/10 11:28:19;;;;;;;8.63;7.73;;;12.30;99.90;;;;;;5051864;28;20424;-56
2022/03/10 11:31:06;;;;;;;9.13;8.13;;;12.70;99.90;;;;;;5051489;28;20387;-56
2022/03/10 11:33:38;;;;;;;13.38;8.63;;;12.90;99.90;;;;;;5068096;28;20406;-55
2022/03/10 11:36:33;;;;;;;10.88;8.43;;;13.00;99.90;;;;;;5040126;28;20822;-55
2022/03/10 11:39:12;;;;;;;11.93;8.52;;;13.20;99.90;;;;;;5051023;28;20400;-56
2022/03/10 11:41:47;;;;;;;12.80;8.73;;;13.50;99.90;;;;;;5051190;28;20400;-57
2022/03/10 11:44:20;;;;;;;12.35;8.77;;;13.50;99.90;;;;;;5053167;28;20403;-55
2022/03/10 11:46:53;;;;;;;10.00;7.80;;;13.40;99.90;;;;;;5052562;28;21224;-56
2022/03/10 11:49:20;;;;;;;10.65;8.50;;;13.40;99.90;;;;;;5047497;28;20491;-56
2022/03/10 11:51:55;;;;;;;11.90;8.70;;;13.70;99.90;;;;;;5071233;28;20845;-56
2022/03/10 11:54:32;;;;;;;11.57;9.38;;;13.60;99.90;;;;;;5069557;28;20427;-55
2022/03/10 11:57:08;;;;;;;8.82;7.82;;;13.50;99.40;;;;;;5035715;28;20383;-54
2022/03/10 11:59:39;;;;;;;12.88;9.77;;;13.30;99.90;;;;;;5053711;28;20380;-55
2022/03/10 12:02:05;;;;;;;10.60;8.90;;;13.30;99.70;;;;;;5069902;28;20819;-54
2022/03/10 12:04:39;;;;;;;19.97;10.10;;;13.50;99.90;;;;;;5050464;28;20395;-58
2022/03/10 12:07:14;;;;;;;10.57;8.73;;;13.70;99.70;;;;;;5048290;28;20391;-57
2022/03/10 12:09:41;;;;;;;10.82;8.55;;;13.80;99.20;;;;;;5066028;28;20392;-57
2022/03/10 12:12:17;;;;;;;10.90;8.57;;;13.90;98.50;;;;;;5066926;28;21090;-55
2022/03/10 12:14:45;;;;;;;11.02;8.63;;;14.00;97.80;;;;;;5049502;28;20419;-53
2022/03/10 12:17:45;;;;;;;11.25;8.07;;;14.20;98.40;;;;;;5047667;28;20403;-52
2022/03/10 12:20:15;;;;;;;9.68;8.40;;;14.50;98.20;;;;;;5043355;28;20504;-55
2022/03/10 12:23:15;;;;;;;9.55;8.50;;;14.50;97.50;;;;;;5053763;28;20904;-53
2022/03/10 12:26:00;;;;;;;10.82;7.88;;;14.40;97.00;;;;;;5049813;28;20391;-56
2022/03/10 12:28:38;;;;;;;13.02;9.73;;;14.60;96.90;;;;;;5067780;28;20427;-56
2022/03/10 12:31:10;;;;;;;10.07;8.93;;;14.70;96.80;;;;;;5066380;28;20445;-56
2022/03/10 12:33:51;;;;;;;11.25;9.20;;;14.80;96.90;;;;;;5033125;28;20514;-56
2022/03/10 12:36:26;;;;;;;10.63;9.23;;;15.00;95.80;;;;;;5068864;28;20439;-55
2022/03/10 12:38:56;;;;;;;11.70;8.85;;;15.40;96.50;;;;;;5067545;28;20470;-56
2022/03/10 12:41:33;;;;;;;10.70;8.65;;;15.70;95.20;;;;;;5051469;28;21089;-55
2022/03/10 12:44:02;;;;;;;9.23;7.68;;;15.90;94.10;;;;;;5050354;28;20388;-57
2022/03/10 12:46:29;;;;;;;7.53;6.60;;;15.70;91.30;;;;;;5047027;28;20420;-53
2022/03/10 12:48:57;;;;;;;8.75;7.50;;;15.30;88.30;;;;;;5035994;28;20815;-55
2022/03/10 12:51:33;;;;;;;8.23;6.43;;;15.40;87.30;;;;;;5046393;28;20498;-51
2022/03/10 12:54:01;;;;;;;7.25;6.43;;;15.70;84.00;;;;;;5050066;28;20433;-53
2022/03/10 12:56:27;;;;;;;9.65;6.60;;;15.80;83.70;;;;;;5048859;28;20407;-57